Time;durP1;ratioP1;P1;durP2;ratioP2;P2;SDS_P1;SDS_P2;PMS_P1;PMS_P2;Temp;Humidity;BMP_temperature;BMP_pressure;BME280_temperature;BME280_humidity;BME280_pressure;Samples;Min_cycle;Max_cycle;Signal;HPM_P1;HPM_P2
2021/07/13 00:02:20;;;;;;;10.88;9.68;;;;;;;21.35;52.96;93803.41;6170057;23;20167;-83
2021/07/13 00:04:50;;;;;;;9.93;8.98;;;;;;;21.46;52.80;93813.19;6172465;23;20021;-83
2021/07/13 00:07:16;;;;;;;13.40;9.48;;;;;;;21.50;52.81;93815.97;6169759;23;20047;-83
2021/07/13 00:09:48;;;;;;;10.95;8.85;;;;;;;21.59;52.45;93819.22;6181144;23;20001;-83
2021/07/13 00:12:18;;;;;;;9.77;8.65;;;;;;;21.35;53.84;93816.84;6169699;23;20019;-83
2021/07/13 00:14:43;;;;;;;9.85;8.85;;;;;;;21.32;53.73;93820.22;6170995;23;20513;-83
2021/07/13 00:17:08;;;;;;;10.98;9.35;;;;;;;21.37;53.74;93825.31;6168744;23;20387;-83
2021/07/13 00:19:35;;;;;;;13.43;9.77;;;;;;;21.40;53.91;93830.78;6166678;23;20420;-83
2021/07/13 00:22:02;;;;;;;11.48;9.75;;;;;;;21.27;54.49;93826.66;6168821;23;20008;-84
2021/07/13 00:24:28;;;;;;;15.02;9.77;;;;;;;21.20;54.84;93836.50;6181778;23;20008;-82
2021/07/13 00:26:53;;;;;;;12.30;9.57;;;;;;;21.09;54.69;93820.91;6169450;23;20075;-82
2021/07/13 00:29:18;;;;;;;15.30;9.88;;;;;;;21.11;54.27;93829.38;6167130;23;20024;-82
2021/07/13 00:31:44;;;;;;;10.35;9.27;;;;;;;21.27;53.82;93834.72;6133105;23;20360;-82
2021/07/13 00:34:12;;;;;;;12.25;9.52;;;;;;;21.18;54.32;93834.94;6163302;23;20348;-83
2021/07/13 00:36:37;;;;;;;9.73;8.82;;;;;;;21.14;54.57;93827.94;6171998;23;20426;-83
2021/07/13 00:39:04;;;;;;;9.70;8.70;;;;;;;21.18;54.48;93840.31;6155652;23;20093;-83
2021/07/13 00:41:34;;;;;;;10.27;9.38;;;;;;;21.12;55.04;93835.53;6170531;23;20059;-83
2021/07/13 00:44:00;;;;;;;11.00;8.88;;;;;;;20.97;55.43;93842.53;6174164;23;20052;-83
2021/07/13 00:46:25;;;;;;;9.98;8.98;;;;;;;20.86;55.93;93838.06;6168874;23;20057;-83
2021/07/13 00:48:54;;;;;;;11.50;10.23;;;;;;;20.82;56.23;93831.84;6178125;23;20005;-82
2021/07/13 00:51:20;;;;;;;14.55;8.95;;;;;;;20.80;56.24;93834.09;6145813;23;19997;-82
2021/07/13 00:53:50;;;;;;;10.38;9.30;;;;;;;20.66;56.53;93837.25;6167238;23;20764;-83
2021/07/13 00:56:16;;;;;;;10.52;9.23;;;;;;;20.68;56.88;93843.81;6143717;23;20013;-83
2021/07/13 00:58:41;;;;;;;11.25;10.10;;;;;;;20.49;57.30;93824.22;6167344;23;20013;-82
2021/07/13 01:01:07;;;;;;;9.88;8.93;;;;;;;20.50;57.90;93831.13;6175887;23;20466;-82
2021/07/13 01:03:34;;;;;;;11.65;9.88;;;;;;;20.44;57.26;93811.06;6144452;23;20001;-83
2021/07/13 01:06:00;;;;;;;11.43;9.65;;;;;;;20.44;58.30;93833.31;6142928;23;20575;-82
2021/07/13 01:08:42;;;;;;;10.60;9.60;;;;;;;20.41;57.78;93817.13;6167123;23;20068;-83
2021/07/13 01:11:29;;;;;;;10.15;9.13;;;;;;;20.56;57.47;93827.84;6166034;23;20017;-83
2021/07/13 01:14:34;;;;;;;10.25;9.10;;;;;;;20.53;57.70;93828.53;6138928;23;20032;-83
2021/07/13 01:17:13;;;;;;;10.00;9.00;;;;;;;20.39;58.48;93825.53;6171170;23;20078;-83
2021/07/13 01:20:16;;;;;;;11.50;9.15;;;;;;;20.23;59.52;93822.81;6174334;23;20025;-83
2021/07/13 01:22:49;;;;;;;12.18;10.98;;;;;;;20.17;59.79;93818.88;6170858;23;20028;-83
2021/07/13 01:25:39;;;;;;;14.77;10.25;;;;;;;20.33;59.11;93815.41;6168999;23;20495;-83
2021/07/13 01:28:20;;;;;;;13.30;10.00;;;;;;;20.22;59.80;93834.69;6143265;23;20061;-83
2021/07/13 01:30:54;;;;;;;14.13;11.20;;;;;;;20.18;59.53;93814.28;6183413;23;20076;-83
2021/07/13 01:33:26;;;;;;;12.82;9.60;;;;;;;20.20;60.23;93828.13;6144114;23;20027;-83
2021/07/13 01:36:06;;;;;;;11.48;10.38;;;;;;;20.08;61.17;93826.31;6169129;23;20420;-83
2021/07/13 01:38:37;;;;;;;12.60;11.30;;;;;;;20.08;61.27;93841.63;6173418;23;20017;-83
2021/07/13 01:41:08;;;;;;;12.82;10.48;;;;;;;20.08;61.26;93841.63;6176390;23;20053;-83
2021/07/13 01:43:39;;;;;;;15.55;10.55;;;;;;;20.04;61.33;93846.88;6166793;23;20028;-83
2021/07/13 01:46:12;;;;;;;12.00;10.90;;;;;;;19.99;61.60;93838.34;6180460;23;20021;-83
2021/07/13 01:48:39;;;;;;;12.00;10.30;;;;;;;19.89;62.25;93850.34;6182125;23;20005;-83
2021/07/13 01:51:07;;;;;;;11.30;9.93;;;;;;;19.98;61.94;93852.88;6171018;23;20006;-84
2021/07/13 01:53:34;;;;;;;11.77;10.52;;;;;;;19.93;61.79;93845.88;6164138;23;20375;-83
2021/07/13 01:56:01;;;;;;;11.20;10.20;;;;;;;19.86;61.54;93840.31;6167472;23;20016;-82
2021/07/13 01:58:32;;;;;;;12.57;11.05;;;;;;;19.93;61.02;93845.09;6176199;23;20017;-83
2021/07/13 02:01:04;;;;;;;11.75;10.48;;;;;;;19.97;60.56;93846.72;6143454;23;20099;-82
2021/07/13 02:03:30;;;;;;;12.65;10.43;;;;;;;19.96;61.13;93839.81;6182774;23;20004;-83
2021/07/13 02:05:57;;;;;;;12.38;10.18;;;;;;;19.77;61.25;93813.69;6170434;23;20141;-82
2021/07/13 02:08:24;;;;;;;12.80;11.60;;;;;;;19.94;61.35;93825.94;6173152;23;20108;-82
2021/07/13 02:10:50;;;;;;;15.18;11.68;;;;;;;19.91;61.54;93832.00;6176611;23;20017;-82
2021/07/13 02:13:18;;;;;;;12.98;11.68;;;;;;;19.94;61.90;93830.56;6169671;23;20020;-83
2021/07/13 02:15:43;;;;;;;12.40;10.82;;;;;;;20.02;61.69;93838.44;6171000;23;20131;-83
2021/07/13 02:18:09;;;;;;;11.23;10.13;;;;;;;19.89;62.26;93834.25;6168666;23;20128;-83
2021/07/13 02:20:35;;;;;;;14.05;10.43;;;;;;;19.85;61.99;93825.34;6142449;23;20357;-83
2021/07/13 02:23:05;;;;;;;14.50;10.65;;;;;;;20.13;60.68;93834.09;6168126;23;20112;-82
2021/07/13 02:25:30;;;;;;;12.18;10.98;;;;;;;20.03;61.32;93829.25;6165459;23;20024;-83
2021/07/13 02:27:56;;;;;;;12.35;9.77;;;;;;;20.09;60.65;93829.75;6178508;23;20009;-83
2021/07/13 02:30:26;;;;;;;13.98;9.85;;;;;;;19.99;60.06;93831.06;6171794;23;20025;-83
2021/07/13 02:32:59;;;;;;;12.23;10.70;;;;;;;19.87;60.39;93833.84;6168571;23;20517;-83
2021/07/13 02:35:34;;;;;;;10.77;9.73;;;;;;;19.76;61.79;93830.09;6143182;23;20403;-83
2021/07/13 02:38:02;;;;;;;11.55;10.38;;;;;;;19.89;60.53;93836.94;6174189;23;20016;-83
2021/07/13 02:40:27;;;;;;;10.98;9.88;;;;;;;19.96;60.28;93839.81;6144026;23;20025;-83
2021/07/13 02:42:53;;;;;;;11.68;10.48;;;;;;;19.86;61.23;93834.94;6177772;23;20011;-83
2021/07/13 02:45:21;;;;;;;12.75;10.88;;;;;;;19.80;61.16;93839.00;6173389;23;20033;-83
2021/07/13 02:47:47;;;;;;;13.98;10.38;;;;;;;19.74;61.86;93832.34;6165854;23;20772;-83
2021/07/13 02:50:15;;;;;;;12.30;11.10;;;;;;;19.77;61.61;93839.69;6170249;23;20017;-83
2021/07/13 02:52:42;;;;;;;13.00;11.10;;;;;;;19.64;62.01;93838.22;6174940;23;20020;-83
2021/07/13 02:55:13;;;;;;;14.88;10.55;;;;;;;19.69;62.15;93838.75;6179318;23;20013;-83
2021/07/13 02:57:43;;;;;;;12.43;11.05;;;;;;;19.76;61.46;93830.09;6169582;23;20361;-83
2021/07/13 03:00:14;;;;;;;13.30;11.90;;;;;;;19.86;62.07;93843.00;6167238;23;20028;-84
2021/07/13 03:02:42;;;;;;;15.75;12.10;;;;;;;19.82;61.33;93823.38;6168639;23;20022;-83
2021/07/13 03:05:12;;;;;;;11.90;10.70;;;;;;;20.02;60.07;93837.66;6174532;23;20025;-83
2021/07/13 03:07:39;;;;;;;11.77;10.18;;;;;;;19.92;60.05;93822.84;6148338;23;20641;-83
2021/07/13 03:10:05;;;;;;;11.93;10.50;;;;;;;20.10;60.51;93834.00;6154581;23;20331;-83
2021/07/13 03:12:31;;;;;;;14.32;10.80;;;;;;;20.11;60.45;93841.72;6171969;23;20428;-83
2021/07/13 03:15:02;;;;;;;15.43;11.40;;;;;;;20.02;60.19;93819.66;6170600;23;20033;-83
2021/07/13 03:17:27;;;;;;;13.52;10.68;;;;;;;20.33;59.65;93836.88;6166347;23;20025;-84
2021/07/13 03:19:54;;;;;;;11.63;10.40;;;;;;;20.42;60.02;93845.53;6175725;23;20040;-84
2021/07/13 03:22:24;;;;;;;13.68;11.52;;;;;;;20.58;59.50;93840.91;6167463;23;20092;-83
2021/07/13 03:24:56;;;;;;;16.02;11.27;;;;;;;20.74;59.15;93847.03;6179576;23;20029;-83
2021/07/13 03:27:22;;;;;;;12.95;11.25;;;;;;;20.89;58.98;93843.50;6144419;23;20008;-83
2021/07/13 03:29:50;;;;;;;12.02;10.52;;;;;;;21.04;58.22;93833.84;6170645;23;20013;-84
2021/07/13 03:32:17;;;;;;;13.25;11.48;;;;;;;21.14;57.87;93847.53;6167332;23;20027;-83
2021/07/13 03:34:46;;;;;;;17.70;11.27;;;;;;;21.53;56.25;93842.13;6170176;23;20021;-84
2021/07/13 03:37:17;;;;;;;12.27;10.65;;;;;;;21.80;55.39;93837.63;6164582;23;20111;-84
2021/07/13 03:39:47;;;;;;;11.43;10.30;;;;;;;22.17;54.65;93827.16;6182557;23;20024;-83
2021/07/13 03:42:13;;;;;;;13.45;10.43;;;;;;;22.68;53.04;93835.59;6140999;23;20017;-84
2021/07/13 03:44:41;;;;;;;15.55;10.55;;;;;;;23.03;51.93;93835.34;6170172;23;20111;-84
2021/07/13 03:47:14;;;;;;;12.25;10.10;;;;;;;23.24;52.22;93827.53;6173555;23;20032;-84
2021/07/13 03:49:40;;;;;;;14.68;10.38;;;;;;;23.67;50.81;93829.59;6176146;23;20534;-84
2021/07/13 03:52:06;;;;;;;10.52;9.25;;;;;;;24.05;50.07;93835.72;6168148;23;20023;-84
2021/07/13 03:54:31;;;;;;;12.32;10.20;;;;;;;24.42;49.34;93841.09;6172768;23;20088;-84
2021/07/13 03:56:57;;;;;;;11.10;9.32;;;;;;;24.83;48.58;93826.31;6166206;23;20583;-84
2021/07/13 03:59:22;;;;;;;12.70;9.00;;;;;;;25.28;46.74;93832.38;6166753;23;20055;-85
2021/07/13 04:01:47;;;;;;;10.63;9.48;;;;;;;25.35;46.79;93830.50;6174317;23;20029;-85
2021/07/13 04:04:13;;;;;;;12.70;10.98;;;;;;;25.99;45.63;93828.00;6142496;23;20095;-85
2021/07/13 04:06:38;;;;;;;12.77;10.70;;;;;;;26.45;43.51;93817.19;6180611;23;20613;-85
2021/07/13 04:09:06;;;;;;;10.75;9.70;;;;;;;26.90;43.67;93829.19;6167635;23;20048;-85
2021/07/13 04:11:32;;;;;;;12.00;10.38;;;;;;;26.94;42.44;93821.81;6168888;23;20017;-85
2021/07/13 04:14:01;;;;;;;10.73;9.18;;;;;;;27.26;42.07;93816.31;6114406;23;20020;-85
2021/07/13 04:16:28;;;;;;;12.73;9.57;;;;;;;27.66;41.97;93820.41;6169071;23;20016;-85
2021/07/13 04:18:53;;;;;;;12.80;10.00;;;;;;;27.98;40.88;93818.28;6179591;23;20007;-85
2021/07/13 04:21:19;;;;;;;12.70;11.18;;;;;;;27.83;40.89;93795.09;6172667;23;20005;-85
2021/07/13 04:23:47;;;;;;;13.45;9.85;;;;;;;27.89;41.32;93803.59;6169014;23;20020;-85
2021/07/13 04:26:13;;;;;;;15.20;9.95;;;;;;;28.17;40.36;93825.19;6167362;23;20024;-85
2021/07/13 04:28:41;;;;;;;12.13;10.93;;;;;;;27.99;40.10;93811.69;6170699;23;20017;-85
2021/07/13 04:31:10;;;;;;;13.43;10.82;;;;;;;28.22;39.62;93810.41;6177739;23;20328;-84
2021/07/13 04:33:38;;;;;;;11.75;10.38;;;;;;;28.38;39.35;93816.09;6173573;23;20009;-85
2021/07/13 04:36:04;;;;;;;14.00;10.82;;;;;;;28.60;38.57;93820.16;6171012;23;20056;-86
2021/07/13 04:38:32;;;;;;;12.10;10.80;;;;;;;28.90;38.27;93813.31;6170049;23;20431;-85
2021/07/13 04:40:58;;;;;;;12.70;9.82;;;;;;;29.34;37.49;93783.31;6142044;23;20033;-85
2021/07/13 04:43:23;;;;;;;13.23;9.88;;;;;;;30.12;36.30;93806.81;6170381;23;20017;-85
2021/07/13 04:45:51;;;;;;;11.18;8.85;;;;;;;30.64;35.10;93809.16;6182229;23;20091;-85
2021/07/13 04:48:20;;;;;;;10.18;9.23;;;;;;;31.08;34.63;93808.00;6172220;23;20017;-86
2021/07/13 04:50:45;;;;;;;12.15;9.38;;;;;;;31.50;33.40;93807.16;6169543;23;20098;-85
2021/07/13 04:53:11;;;;;;;14.35;9.82;;;;;;;31.87;33.29;93811.47;6173693;23;20052;-87
2021/07/13 04:55:36;;;;;;;10.43;9.10;;;;;;;32.07;32.39;93798.53;6169498;23;20087;-85
2021/07/13 04:58:01;;;;;;;13.13;9.50;;;;;;;32.47;31.84;93804.69;6181358;23;20432;-86
2021/07/13 05:00:27;;;;;;;18.48;10.00;;;;;;;32.63;31.71;93784.75;6172800;23;20016;-85
2021/07/13 05:02:52;;;;;;;11.02;9.43;;;;;;;33.05;30.94;93789.16;6128208;23;20453;-86
2021/07/13 05:05:21;;;;;;;15.52;9.45;;;;;;;33.29;30.57;93780.72;6170583;23;20044;-86
2021/07/13 05:07:47;;;;;;;11.73;9.50;;;;;;;33.73;30.46;93801.78;6171106;23;20020;-86
2021/07/13 05:10:17;;;;;;;13.50;10.25;;;;;;;33.89;29.81;93768.03;6169350;23;20069;-86
2021/07/13 05:12:43;;;;;;;12.70;9.32;;;;;;;34.39;29.24;93794.72;6173828;23;20016;-86
2021/07/13 05:15:17;;;;;;;14.30;9.93;;;;;;;34.67;29.06;93793.03;6170180;23;20058;-86
2021/07/13 05:17:43;;;;;;;;;;;;;;;35.26;27.76;93808.72;6172734;23;20021;-85
2021/07/13 05:20:12;;;;;;;14.30;9.90;;;;;;;34.95;28.75;93814.06;6169621;23;20302;-86
2021/07/13 05:22:38;;;;;;;14.77;10.23;;;;;;;34.60;28.36;93805.00;6173185;23;20132;-86
2021/07/13 05:25:06;;;;;;;16.17;10.50;;;;;;;35.00;28.36;93820.97;6180044;23;20028;-86
2021/07/13 05:27:36;;;;;;;17.63;10.98;;;;;;;35.44;27.73;93786.88;6183772;23;20012;-87
2021/07/13 05:30:02;;;;;;;16.15;11.00;;;;;;;35.18;27.72;93783.50;6168704;23;20056;-85
2021/07/13 05:32:28;;;;;;;14.65;10.70;;;;;;;35.35;27.94;93816.28;6170027;23;20060;-85
2021/07/13 05:34:54;;;;;;;12.23;10.52;;;;;;;34.77;28.96;93820.16;6175939;23;20013;-86
2021/07/13 05:37:22;;;;;;;12.88;10.40;;;;;;;34.64;29.15;93788.44;6154877;23;20233;-87
2021/07/13 05:39:48;;;;;;;19.08;12.50;;;;;;;34.42;29.30;93821.28;6128996;23;20570;-87
2021/07/13 05:42:14;;;;;;;14.80;12.57;;;;;;;34.73;29.56;93811.28;6169326;23;20017;-86
2021/07/13 05:44:40;;;;;;;12.88;11.10;;;;;;;34.80;29.15;93798.53;6172732;23;20336;-87
2021/07/13 05:47:08;;;;;;;16.42;12.00;;;;;;;35.09;28.91;93823.84;6175762;23;20028;-86
2021/07/13 05:49:33;;;;;;;14.27;11.55;;;;;;;34.68;29.47;93805.59;6170435;23;20113;-87
2021/07/13 05:51:59;;;;;;;16.38;11.27;;;;;;;35.36;28.84;93829.56;6169228;23;20005;-87
2021/07/13 05:54:24;;;;;;;17.13;11.85;;;;;;;35.02;29.30;93807.59;6182503;23;20024;-86
2021/07/13 05:56:50;;;;;;;13.23;11.80;;;;;;;35.97;27.77;93808.94;6170346;23;20013;-86
2021/07/13 05:59:18;;;;;;;13.65;11.48;;;;;;;36.32;27.07;93826.84;6169792;23;20537;-86
2021/07/13 06:01:46;;;;;;;12.63;11.23;;;;;;;36.45;27.09;93804.72;6168841;23;20492;-86
2021/07/13 06:04:12;;;;;;;12.98;10.20;;;;;;;37.16;26.77;93802.59;6176459;23;20091;-86
2021/07/13 06:06:37;;;;;;;17.65;11.70;;;;;;;37.55;25.55;93811.97;6168462;23;20012;-86
2021/07/13 06:09:04;;;;;;;18.55;11.05;;;;;;;37.03;25.99;93792.94;6165699;23;20364;-87
2021/07/13 06:11:29;;;;;;;13.25;10.55;;;;;;;37.59;25.89;93801.53;6167115;23;20403;-86
2021/07/13 06:13:55;;;;;;;15.40;10.38;;;;;;;37.20;26.02;93778.41;6143280;23;20104;-86
2021/07/13 06:16:20;;;;;;;16.27;11.50;;;;;;;37.02;26.14;93824.47;6167713;23;20120;-85
2021/07/13 06:18:46;;;;;;;14.82;10.85;;;;;;;36.60;26.71;93821.44;6168126;23;20011;-86
2021/07/13 06:21:11;;;;;;;13.93;10.70;;;;;;;36.45;26.21;93821.25;6166910;23;20095;-86
2021/07/13 06:23:37;;;;;;;12.02;10.70;;;;;;;37.24;26.25;93803.81;6165273;23;20021;-86
2021/07/13 06:26:03;;;;;;;10.93;9.70;;;;;;;37.46;25.42;93802.91;6172326;23;20021;-87
2021/07/13 06:28:28;;;;;;;11.70;9.50;;;;;;;37.28;25.39;93798.94;6176366;23;20023;-86
2021/07/13 06:30:54;;;;;;;16.13;8.85;;;;;;;38.12;24.97;93801.91;6176453;23;20001;-85
2021/07/13 06:33:20;;;;;;;16.70;9.50;;;;;;;38.13;24.71;93806.19;6170338;23;20024;-86
2021/07/13 06:35:48;;;;;;;15.82;9.82;;;;;;;37.69;25.34;93816.06;6117300;23;20033;-86
2021/07/13 06:38:14;;;;;;;22.17;10.63;;;;;;;37.13;26.23;93833.84;6168056;23;20024;-87
2021/07/13 06:40:40;;;;;;;13.45;10.43;;;;;;;36.89;26.95;93805.31;6142693;23;20025;-88
2021/07/13 06:43:11;;;;;;;12.25;10.15;;;;;;;37.52;27.18;93834.94;6136240;23;20005;-86
2021/07/13 06:45:37;;;;;;;14.52;9.38;;;;;;;37.61;26.63;93784.53;6141202;23;20032;-84
2021/07/13 06:48:03;;;;;;;16.10;10.18;;;;;;;38.79;24.72;93792.41;6166525;23;20013;-85
2021/07/13 06:50:29;;;;;;;13.75;8.77;;;;;;;40.06;24.63;93828.63;6166475;23;20053;-85
2021/07/13 06:52:55;;;;;;;13.75;8.75;;;;;;;40.36;23.60;93815.56;6137896;23;20064;-85
2021/07/13 06:55:23;;;;;;;16.75;9.85;;;;;;;39.92;23.35;93790.66;6136603;23;20083;-86
2021/07/13 06:57:52;;;;;;;13.93;9.38;;;;;;;40.30;22.59;93798.84;6170005;23;20032;-86
2021/07/13 07:00:21;;;;;;;15.55;9.25;;;;;;;40.38;22.78;93790.88;6167258;23;20017;-86
2021/07/13 07:02:46;;;;;;;10.70;8.75;;;;;;;40.66;22.30;93794.88;6163125;23;20013;-86
2021/07/13 07:05:14;;;;;;;17.65;8.95;;;;;;;41.48;21.84;93802.00;6173437;23;20328;-85
2021/07/13 07:07:48;;;;;;;12.25;8.02;;;;;;;41.50;21.54;93825.22;6169592;23;20021;-85
2021/07/13 07:10:15;;;;;;;10.23;8.30;;;;;;;42.29;20.80;93802.56;6167491;23;20017;-84
2021/07/13 07:12:42;;;;;;;11.73;8.20;;;;;;;42.43;20.67;93791.81;6183972;23;19997;-86
2021/07/13 07:15:08;;;;;;;13.25;8.50;;;;;;;42.64;20.69;93801.56;6148447;23;20030;-86
2021/07/13 07:17:42;;;;;;;10.55;8.65;;;;;;;41.71;20.95;93780.81;6164112;23;20123;-85
2021/07/13 07:20:09;;;;;;;9.25;7.90;;;;;;;41.18;21.73;93797.84;6173359;23;20021;-85
2021/07/13 07:22:34;;;;;;;10.05;9.05;;;;;;;41.10;21.49;93780.88;6168425;23;20062;-85
2021/07/13 07:25:00;;;;;;;13.05;8.95;;;;;;;41.50;21.00;93782.84;6169812;23;20017;-85
2021/07/13 07:27:29;;;;;;;9.18;8.13;;;;;;;41.91;21.01;93800.97;6175115;23;20083;-86
2021/07/13 07:29:55;;;;;;;12.82;8.32;;;;;;;41.46;21.06;93776.75;6168158;23;20017;-84
2021/07/13 07:32:20;;;;;;;13.57;8.32;;;;;;;42.21;20.80;93761.84;6166791;23;20474;-85
2021/07/13 07:34:45;;;;;;;10.52;7.72;;;;;;;43.19;19.55;93798.38;6170352;23;20601;-85
2021/07/13 07:37:13;;;;;;;8.45;7.47;;;;;;;42.62;19.97;93779.03;6146962;23;20023;-86
2021/07/13 07:39:41;;;;;;;11.80;8.00;;;;;;;42.38;20.62;93809.94;6151921;23;20012;-85
2021/07/13 07:42:09;;;;;;;11.00;8.10;;;;;;;42.96;20.40;93803.03;6167763;23;20032;-87
2021/07/13 07:44:35;;;;;;;12.23;8.07;;;;;;;42.63;20.12;93786.13;6171978;23;20041;-86
2021/07/13 07:47:00;;;;;;;13.02;8.00;;;;;;;42.25;20.66;93763.13;6174806;23;20060;-86
2021/07/13 07:49:26;;;;;;;11.15;8.88;;;;;;;42.20;20.12;93804.75;6149709;23;20555;-87
2021/07/13 07:51:52;;;;;;;17.90;8.95;;;;;;;41.64;20.81;93762.56;6149058;23;20760;-87
2021/07/13 07:54:17;;;;;;;16.33;9.13;;;;;;;41.47;20.61;93773.50;6145496;23;20001;-86
2021/07/13 07:56:43;;;;;;;10.57;9.10;;;;;;;41.73;20.59;93794.97;6144014;23;20114;-86
2021/07/13 07:59:08;;;;;;;14.07;8.68;;;;;;;42.15;20.20;93772.91;6167574;23;20349;-85
2021/07/13 08:01:34;;;;;;;13.45;8.85;;;;;;;42.34;19.18;93764.97;6167527;23;20016;-84
2021/07/13 08:04:00;;;;;;;11.50;7.85;;;;;;;42.64;19.89;93782.09;6176977;23;20005;-84
2021/07/13 08:06:26;;;;;;;12.52;9.43;;;;;;;42.81;19.66;93788.56;6173969;23;20071;-85
2021/07/13 08:08:51;;;;;;;11.20;8.35;;;;;;;42.95;19.57;93784.84;6170994;23;20435;-84
2021/07/13 08:11:17;;;;;;;10.43;9.23;;;;;;;43.06;19.00;93803.56;6174420;23;20029;-84
2021/07/13 08:13:42;;;;;;;16.85;9.82;;;;;;;43.54;18.48;93784.09;6176127;23;20478;-85
2021/07/13 08:16:08;;;;;;;22.92;9.48;;;;;;;43.54;18.69;93795.25;6169491;23;20008;-85
2021/07/13 08:18:34;;;;;;;10.70;9.70;;;;;;;43.53;18.54;93799.28;6172652;23;20336;-84
2021/07/13 08:21:00;;;;;;;11.20;9.57;;;;;;;43.47;18.85;93813.16;6166761;23;20040;-86
2021/07/13 08:23:29;;;;;;;12.50;9.43;;;;;;;43.96;18.91;93786.72;6168307;23;20407;-85
2021/07/13 08:25:55;;;;;;;12.88;8.55;;;;;;;43.60;18.62;93779.28;6173245;23;20661;-86
2021/07/13 08:28:21;;;;;;;11.52;9.00;;;;;;;43.54;18.68;93801.56;6176408;23;20024;-85
2021/07/13 08:30:46;;;;;;;11.90;8.65;;;;;;;43.69;18.64;93804.13;6168858;23;20008;-85
2021/07/13 08:33:12;;;;;;;12.52;8.20;;;;;;;43.97;17.86;93779.91;6167564;23;20040;-85
2021/07/13 08:35:38;;;;;;;9.88;8.15;;;;;;;43.76;18.02;93792.50;6167242;23;20108;-85
2021/07/13 08:38:04;;;;;;;11.18;8.32;;;;;;;43.41;19.19;93790.09;6168934;23;20048;-85
2021/07/13 08:40:30;;;;;;;13.82;8.35;;;;;;;43.75;18.74;93799.31;6169077;23;20091;-84
2021/07/13 08:42:56;;;;;;;15.52;8.93;;;;;;;44.07;18.33;93790.78;6175456;23;20079;-85
2021/07/13 08:45:22;;;;;;;9.88;8.25;;;;;;;43.81;18.29;93788.97;6182194;23;20152;-86
2021/07/13 08:47:50;;;;;;;11.27;8.43;;;;;;;43.78;18.80;93787.19;6165692;23;20364;-85
2021/07/13 08:50:17;;;;;;;10.48;8.57;;;;;;;44.07;17.80;93790.78;6168841;23;20506;-85
2021/07/13 08:52:48;;;;;;;11.32;8.10;;;;;;;43.54;18.20;93773.75;6141211;23;20028;-84
2021/07/13 08:55:14;;;;;;;12.60;8.20;;;;;;;44.66;18.24;93780.19;6178755;23;20020;-85
2021/07/13 08:57:42;;;;;;;14.98;8.63;;;;;;;44.68;17.48;93774.06;6171917;23;20005;-84
2021/07/13 09:00:10;;;;;;;8.80;7.80;;;;;;;44.61;17.43;93783.72;6164870;23;20017;-85
2021/07/13 09:02:35;;;;;;;10.07;8.25;;;;;;;43.32;18.28;93753.41;6162911;23;20160;-85
2021/07/13 09:05:02;;;;;;;9.52;7.82;;;;;;;43.43;18.87;93754.19;6160534;23;20507;-84
2021/07/13 09:07:30;;;;;;;9.85;7.82;;;;;;;43.67;18.51;93753.78;6171395;23;20012;-85
2021/07/13 09:10:22;;;;;;;13.50;8.13;;;;;;;42.77;18.59;93779.69;6166361;23;20009;-85
2021/07/13 09:12:48;;;;;;;9.63;8.57;;;;;;;42.55;18.79;93773.97;6162839;23;20689;-84
2021/07/13 09:15:17;;;;;;;13.05;8.60;;;;;;;42.61;18.88;93741.44;6164838;23;20020;-85
2021/07/13 09:17:45;;;;;;;9.80;8.98;;;;;;;42.03;19.39;93765.72;6127453;23;20021;-85
2021/07/13 09:20:31;;;;;;;9.60;8.63;;;;;;;41.72;20.23;93779.56;6136122;23;20017;-84
2021/07/13 09:23:06;;;;;;;12.15;9.02;;;;;;;41.02;20.79;93782.50;6167137;23;20017;-85
2021/07/13 09:25:44;;;;;;;11.82;10.48;;;;;;;40.32;20.99;93788.03;6139469;23;20040;-86
2021/07/13 09:28:11;;;;;;;12.15;10.00;;;;;;;39.49;22.05;93761.69;6173981;23;20028;-84
2021/07/13 09:30:40;;;;;;;15.82;10.48;;;;;;;38.72;23.36;93792.75;6177785;23;20034;-84
2021/07/13 09:33:32;;;;;;;15.18;10.27;;;;;;;38.69;23.73;93790.94;6163745;23;20297;-84
2021/07/13 09:35:58;;;;;;;16.17;9.65;;;;;;;38.27;24.16;93787.47;6156525;23;20021;-83
2021/07/13 09:38:25;;;;;;;12.68;10.13;;;;;;;38.44;24.71;93772.06;6165483;23;20027;-84
2021/07/13 09:40:59;;;;;;;15.23;10.82;;;;;;;38.35;24.03;93769.31;6171677;23;20048;-85
2021/07/13 09:43:24;;;;;;;16.63;10.00;;;;;;;37.89;23.86;93752.91;6164405;23;20019;-83
2021/07/13 09:45:50;;;;;;;12.43;10.30;;;;;;;37.78;24.55;93773.94;6167632;23;20088;-83
2021/07/13 09:48:15;;;;;;;14.25;10.57;;;;;;;37.99;24.33;93784.78;6168871;23;20005;-85
2021/07/13 09:50:51;;;;;;;18.70;11.57;;;;;;;36.99;25.44;93782.06;6167711;23;20017;-84
2021/07/13 09:53:20;;;;;;;18.17;10.95;;;;;;;37.22;24.39;93756.69;6171926;23;20184;-84
2021/07/13 09:55:48;;;;;;;11.05;9.48;;;;;;;36.93;25.27;93783.91;6167685;23;20663;-84
2021/07/13 09:58:15;;;;;;;13.60;10.13;;;;;;;36.69;25.90;93769.19;6169840;23;20020;-83
2021/07/13 10:00:42;;;;;;;18.08;11.02;;;;;;;36.88;25.62;93770.72;6170370;23;20025;-83
2021/07/13 10:03:13;;;;;;;15.20;9.90;;;;;;;36.79;25.08;93765.22;6169420;23;20017;-84
2021/07/13 10:05:40;;;;;;;10.80;9.70;;;;;;;36.46;25.34;93749.19;6163856;23;20017;-83
2021/07/13 10:08:09;;;;;;;11.77;10.57;;;;;;;36.44;26.05;93753.66;6165809;23;20025;-83
2021/07/13 10:10:38;;;;;;;10.65;9.65;;;;;;;36.60;24.85;93760.88;6173347;23;20017;-83
2021/07/13 10:13:08;;;;;;;12.20;9.70;;;;;;;36.35;24.52;93757.16;6176812;23;20441;-83
2021/07/13 10:15:35;;;;;;;12.57;10.00;;;;;;;36.01;24.72;93749.06;6178511;23;20001;-85
2021/07/13 10:18:03;;;;;;;11.32;10.07;;;;;;;35.90;25.13;93749.47;6163254;23;20479;-83
2021/07/13 10:20:29;;;;;;;10.30;8.77;;;;;;;35.68;24.89;93754.22;6170179;23;20021;-83
2021/07/13 10:22:55;;;;;;;12.60;9.50;;;;;;;35.77;25.62;93759.03;6138097;23;20095;-81
2021/07/13 10:25:34;;;;;;;12.38;8.85;;;;;;;35.78;24.53;93752.28;6152935;23;20024;-85
2021/07/13 10:28:00;;;;;;;11.07;8.57;;;;;;;35.99;24.43;93746.75;6163489;23;20008;-89
2021/07/13 10:30:26;;;;;;;9.77;7.95;;;;;;;36.23;22.61;93754.50;6167713;23;20005;-87
2021/07/13 10:32:51;;;;;;;12.05;7.72;;;;;;;36.07;24.34;93725.22;6164674;23;20021;-85
2021/07/13 10:35:23;;;;;;;11.80;8.95;;;;;;;36.37;22.69;93748.41;6168106;23;20040;-86
2021/07/13 10:37:52;;;;;;;8.70;7.80;;;;;;;35.94;23.92;93710.81;6089783;23;20404;-83
2021/07/13 10:40:27;;;;;;;9.20;8.30;;;;;;;36.10;24.01;93735.31;6140120;23;20017;-85
2021/07/13 10:43:16;;;;;;;8.85;8.00;;;;;;;36.16;23.29;93741.81;6166189;23;20008;-85
2021/07/13 10:45:42;;;;;;;8.85;7.97;;;;;;;36.29;23.20;93747.19;6165349;23;20147;-85
2021/07/13 10:48:18;;;;;;;9.20;7.32;;;;;;;36.31;23.38;93734.47;6166800;23;20120;-85
2021/07/13 10:50:57;;;;;;;10.55;8.05;;;;;;;36.17;23.77;93717.78;6162712;23;20071;-86
2021/07/13 10:53:37;;;;;;;11.30;8.23;;;;;;;36.44;23.36;93737.13;6163308;23;20602;-87
2021/07/13 10:56:08;;;;;;;10.13;8.60;;;;;;;36.07;23.96;93694.22;6169557;23;20066;-89
2021/07/13 10:58:49;;;;;;;11.90;8.60;;;;;;;36.30;24.51;93732.22;6139123;23;20040;-87
2021/07/13 11:01:35;;;;;;;11.85;7.80;;;;;;;35.89;22.93;93686.66;6169017;23;20100;-88
2021/07/13 11:04:09;;;;;;;10.40;7.93;;;;;;;35.81;22.85;93707.41;6166206;23;20484;-86
2021/07/13 11:07:00;;;;;;;;;;;;;;;35.84;22.90;93729.25;6166303;23;20007;-84
2021/07/13 11:09:31;;;;;;;14.43;8.15;;;;;;;35.42;24.08;93673.91;6161111;23;20401;-86
2021/07/13 11:12:12;;;;;;;9.13;8.20;;;;;;;35.66;24.42;93695.41;6137945;23;20460;-84
2021/07/13 11:14:54;;;;;;;12.68;8.40;;;;;;;35.85;25.43;93697.03;6163052;23;20032;-88
2021/07/13 11:17:21;;;;;;;13.77;8.55;;;;;;;35.99;24.50;93699.22;6168885;23;20017;-84
2021/07/13 11:19:46;;;;;;;11.13;9.88;;;;;;;35.96;24.13;93691.88;6105599;23;20045;-83
2021/07/13 11:22:19;;;;;;;10.40;8.57;;;;;;;35.52;23.91;93659.00;6112068;23;20027;-87
2021/07/13 11:24:45;;;;;;;10.75;8.45;;;;;;;35.52;24.45;93667.25;6149804;23;20005;-85
2021/07/13 11:27:11;;;;;;;12.52;8.60;;;;;;;35.79;25.66;93687.84;6161932;23;20506;-86
2021/07/13 11:29:36;;;;;;;9.27;8.40;;;;;;;35.77;23.92;93654.53;6162111;23;20115;-85
2021/07/13 11:32:04;;;;;;;10.32;9.20;;;;;;;36.10;26.39;93702.31;6164017;23;20021;-84